Terminal Aerodrome Forecast
Issued by NWS

Home | Current Version | Previous Version | Text Only | Print | Product List | Glossary On
Versions: 1 2 3 4 5 6 7 8 9 10 11 12 13
000
FTUS43 KMPX 242326
TAFAXN
TAF
KAXN 242326Z 2500/2524 15010KT P6SM -SHRA SCT035 BKN090
     FM250400 16012KT P6SM VCSH BKN050 OVC100
     FM250700 16012KT P6SM VCTS BKN050CB
     FM251000 16014KT P6SM SCT050 OVC100
     FM251500 18014G20KT P6SM SCT015 BKN025
     FM252000 17008KT P6SM VCTS SCT025 BKN050CB=

USA.gov is the U.S. government's official web portal to all federal, state and local government web resources and services.